sensor_id;sensor_type;location;lat;lon;timestamp;temperature;humidity
15937;DHT22;9163;48.818;8.976;2023-11-21T00:00:18;6.10;99.90
15937;DHT22;9163;48.818;8.976;2023-11-21T00:02:45;6.20;99.90
15937;DHT22;9163;48.818;8.976;2023-11-21T00:05:13;6.20;99.90
15937;DHT22;9163;48.818;8.976;2023-11-21T00:07:42;6.20;99.90
15937;DHT22;9163;48.818;8.976;2023-11-21T00:10:12;6.20;99.90
15937;DHT22;9163;48.818;8.976;2023-11-21T00:12:42;6.20;99.90
15937;DHT22;9163;48.818;8.976;2023-11-21T00:15:10;6.20;99.90
15937;DHT22;9163;48.818;8.976;2023-11-21T00:17:37;6.20;99.90
15937;DHT22;9163;48.818;8.976;2023-11-21T00:20:06;6.30;99.90
15937;DHT22;9163;48.818;8.976;2023-11-21T00:22:34;6.30;99.90
15937;DHT22;9163;48.818;8.976;2023-11-21T00:25:01;6.40;99.90
15937;DHT22;9163;48.818;8.976;2023-11-21T00:27:31;6.40;99.90
15937;DHT22;9163;48.818;8.976;2023-11-21T00:29:58;6.40;99.90
15937;DHT22;9163;48.818;8.976;2023-11-21T00:32:25;6.50;99.90
15937;DHT22;9163;48.818;8.976;2023-11-21T00:34:52;6.50;99.90
15937;DHT22;9163;48.818;8.976;2023-11-21T00:37:20;6.50;99.90
15937;DHT22;9163;48.818;8.976;2023-11-21T00:39:47;6.50;99.90
15937;DHT22;9163;48.818;8.976;2023-11-21T00:42:15;6.60;99.90
15937;DHT22;9163;48.818;8.976;2023-11-21T00:44:43;6.60;99.90
15937;DHT22;9163;48.818;8.976;2023-11-21T00:47:10;6.60;99.90
15937;DHT22;9163;48.818;8.976;2023-11-21T00:49:38;6.60;99.90
15937;DHT22;9163;48.818;8.976;2023-11-21T00:52:06;6.60;99.90
15937;DHT22;9163;48.818;8.976;2023-11-21T00:54:33;6.60;99.90
15937;DHT22;9163;48.818;8.976;2023-11-21T00:57:00;6.60;99.90
15937;DHT22;9163;48.818;8.976;2023-11-21T00:59:28;6.60;99.90
15937;DHT22;9163;48.818;8.976;2023-11-21T01:01:58;6.70;99.90
15937;DHT22;9163;48.818;8.976;2023-11-21T01:04:26;6.70;99.90
15937;DHT22;9163;48.818;8.976;2023-11-21T01:06:53;6.70;99.90
15937;DHT22;9163;48.818;8.976;2023-11-21T01:09:21;6.70;99.90
15937;DHT22;9163;48.818;8.976;2023-11-21T01:11:48;6.70;99.90
15937;DHT22;9163;48.818;8.976;2023-11-21T01:14:15;6.70;99.90
15937;DHT22;9163;48.818;8.976;2023-11-21T01:16:43;6.70;99.90
15937;DHT22;9163;48.818;8.976;2023-11-21T01:19:12;6.70;99.90
15937;DHT22;9163;48.818;8.976;2023-11-21T01:21:39;6.70;99.90
15937;DHT22;9163;48.818;8.976;2023-11-21T01:24:07;6.80;99.90
15937;DHT22;9163;48.818;8.976;2023-11-21T01:26:34;6.80;99.90
15937;DHT22;9163;48.818;8.976;2023-11-21T01:29:01;6.80;99.90
15937;DHT22;9163;48.818;8.976;2023-11-21T01:31:29;6.70;99.90
15937;DHT22;9163;48.818;8.976;2023-11-21T01:33:56;6.80;99.90
15937;DHT22;9163;48.818;8.976;2023-11-21T01:36:31;6.80;99.90
15937;DHT22;9163;48.818;8.976;2023-11-21T01:38:59;6.80;99.90
15937;DHT22;9163;48.818;8.976;2023-11-21T01:41:27;6.80;99.90
15937;DHT22;9163;48.818;8.976;2023-11-21T01:43:54;6.80;99.90
15937;DHT22;9163;48.818;8.976;2023-11-21T01:46:22;6.80;99.90
15937;DHT22;9163;48.818;8.976;2023-11-21T01:48:50;6.80;99.90
15937;DHT22;9163;48.818;8.976;2023-11-21T01:51:19;6.80;99.90
15937;DHT22;9163;48.818;8.976;2023-11-21T01:53:48;6.80;99.90
15937;DHT22;9163;48.818;8.976;2023-11-21T01:56:15;6.80;99.90
15937;DHT22;9163;48.818;8.976;2023-11-21T01:58:43;6.80;99.90
15937;DHT22;9163;48.818;8.976;2023-11-21T02:01:12;6.80;99.90
15937;DHT22;9163;48.818;8.976;2023-11-21T02:03:40;6.80;99.90
15937;DHT22;9163;48.818;8.976;2023-11-21T02:06:07;6.80;99.90
15937;DHT22;9163;48.818;8.976;2023-11-21T02:08:35;6.80;99.90
15937;DHT22;9163;48.818;8.976;2023-11-21T02:11:05;6.80;99.90
15937;DHT22;9163;48.818;8.976;2023-11-21T02:13:33;6.80;99.90
15937;DHT22;9163;48.818;8.976;2023-11-21T02:16:01;6.80;99.90
15937;DHT22;9163;48.818;8.976;2023-11-21T02:18:28;6.80;99.90
15937;DHT22;9163;48.818;8.976;2023-11-21T02:20:56;6.80;99.90
15937;DHT22;9163;48.818;8.976;2023-11-21T02:23:25;6.80;99.90
15937;DHT22;9163;48.818;8.976;2023-11-21T02:25:54;6.70;99.90
15937;DHT22;9163;48.818;8.976;2023-11-21T02:28:22;6.70;99.90
15937;DHT22;9163;48.818;8.976;2023-11-21T02:30:51;6.70;99.90
15937;DHT22;9163;48.818;8.976;2023-11-21T02:33:21;6.70;99.90
15937;DHT22;9163;48.818;8.976;2023-11-21T02:35:49;6.70;99.90
15937;DHT22;9163;48.818;8.976;2023-11-21T02:38:17;6.70;99.90
15937;DHT22;9163;48.818;8.976;2023-11-21T02:40:45;6.70;99.90
15937;DHT22;9163;48.818;8.976;2023-11-21T02:43:13;6.70;99.90
15937;DHT22;9163;48.818;8.976;2023-11-21T02:45:40;6.60;99.90
15937;DHT22;9163;48.818;8.976;2023-11-21T02:48:08;6.60;99.90
15937;DHT22;9163;48.818;8.976;2023-11-21T02:50:35;6.60;99.90
15937;DHT22;9163;48.818;8.976;2023-11-21T02:53:03;6.60;99.90
15937;DHT22;9163;48.818;8.976;2023-11-21T02:55:32;6.60;99.90
15937;DHT22;9163;48.818;8.976;2023-11-21T02:58:02;6.60;99.90
15937;DHT22;9163;48.818;8.976;2023-11-21T03:00:30;6.60;99.90
15937;DHT22;9163;48.818;8.976;2023-11-21T03:02:58;6.60;99.90
15937;DHT22;9163;48.818;8.976;2023-11-21T03:05:26;6.60;99.90
15937;DHT22;9163;48.818;8.976;2023-11-21T03:07:55;6.60;99.90
15937;DHT22;9163;48.818;8.976;2023-11-21T03:10:22;6.60;99.90
15937;DHT22;9163;48.818;8.976;2023-11-21T03:12:49;6.60;99.90
15937;DHT22;9163;48.818;8.976;2023-11-21T03:15:18;6.60;99.90
15937;DHT22;9163;48.818;8.976;2023-11-21T03:17:45;6.60;99.90
15937;DHT22;9163;48.818;8.976;2023-11-21T03:20:15;6.60;99.90
15937;DHT22;9163;48.818;8.976;2023-11-21T03:22:43;6.60;99.90
15937;DHT22;9163;48.818;8.976;2023-11-21T03:25:10;6.60;99.90
15937;DHT22;9163;48.818;8.976;2023-11-21T03:27:38;6.50;99.90
15937;DHT22;9163;48.818;8.976;2023-11-21T03:30:08;6.50;99.90
15937;DHT22;9163;48.818;8.976;2023-11-21T03:32:37;6.60;99.90
15937;DHT22;9163;48.818;8.976;2023-11-21T03:35:05;6.60;99.90
15937;DHT22;9163;48.818;8.976;2023-11-21T03:37:32;6.60;99.90
15937;DHT22;9163;48.818;8.976;2023-11-21T03:39:59;6.60;99.90
15937;DHT22;9163;48.818;8.976;2023-11-21T03:42:27;6.60;99.90
15937;DHT22;9163;48.818;8.976;2023-11-21T03:44:54;6.60;99.90
15937;DHT22;9163;48.818;8.976;2023-11-21T03:47:21;6.60;99.90
15937;DHT22;9163;48.818;8.976;2023-11-21T03:49:50;6.60;99.90
15937;DHT22;9163;48.818;8.976;2023-11-21T03:52:17;6.60;99.90
15937;DHT22;9163;48.818;8.976;2023-11-21T03:54:44;6.60;99.90
15937;DHT22;9163;48.818;8.976;2023-11-21T03:57:12;6.50;99.90
15937;DHT22;9163;48.818;8.976;2023-11-21T03:59:40;6.50;99.90
15937;DHT22;9163;48.818;8.976;2023-11-21T04:02:08;6.50;99.90
15937;DHT22;9163;48.818;8.976;2023-11-21T04:04:35;6.50;99.90
15937;DHT22;9163;48.818;8.976;2023-11-21T04:07:04;6.50;99.90
15937;DHT22;9163;48.818;8.976;2023-11-21T04:09:32;6.50;99.90
15937;DHT22;9163;48.818;8.976;2023-11-21T04:11:59;6.60;99.90
15937;DHT22;9163;48.818;8.976;2023-11-21T04:14:26;6.60;99.90
15937;DHT22;9163;48.818;8.976;2023-11-21T04:16:53;6.60;99.90
15937;DHT22;9163;48.818;8.976;2023-11-21T04:19:21;6.50;99.90
15937;DHT22;9163;48.818;8.976;2023-11-21T04:21:48;6.50;99.90
15937;DHT22;9163;48.818;8.976;2023-11-21T04:24:17;6.50;99.90
15937;DHT22;9163;48.818;8.976;2023-11-21T04:26:44;6.50;99.90
15937;DHT22;9163;48.818;8.976;2023-11-21T04:29:11;6.40;99.90
15937;DHT22;9163;48.818;8.976;2023-11-21T04:31:38;6.40;99.90
15937;DHT22;9163;48.818;8.976;2023-11-21T04:34:05;6.40;99.90
15937;DHT22;9163;48.818;8.976;2023-11-21T04:36:34;6.40;99.90
15937;DHT22;9163;48.818;8.976;2023-11-21T04:39:01;6.30;99.90
15937;DHT22;9163;48.818;8.976;2023-11-21T04:41:30;6.30;99.90
15937;DHT22;9163;48.818;8.976;2023-11-21T04:43:58;6.30;99.90
15937;DHT22;9163;48.818;8.976;2023-11-21T04:46:26;6.30;99.90
15937;DHT22;9163;48.818;8.976;2023-11-21T04:48:53;6.30;99.90
15937;DHT22;9163;48.818;8.976;2023-11-21T04:51:21;6.30;99.90
15937;DHT22;9163;48.818;8.976;2023-11-21T04:53:48;6.20;99.90
15937;DHT22;9163;48.818;8.976;2023-11-21T04:56:15;6.30;99.90
15937;DHT22;9163;48.818;8.976;2023-11-21T04:58:44;6.20;99.90
15937;DHT22;9163;48.818;8.976;2023-11-21T05:01:11;6.20;99.90
15937;DHT22;9163;48.818;8.976;2023-11-21T05:03:39;6.10;99.90
15937;DHT22;9163;48.818;8.976;2023-11-21T05:06:09;6.20;99.90
15937;DHT22;9163;48.818;8.976;2023-11-21T05:08:36;6.10;99.90
15937;DHT22;9163;48.818;8.976;2023-11-21T05:11:04;6.10;99.90
15937;DHT22;9163;48.818;8.976;2023-11-21T05:13:34;6.00;99.90
15937;DHT22;9163;48.818;8.976;2023-11-21T05:16:03;6.00;99.90
15937;DHT22;9163;48.818;8.976;2023-11-21T05:18:33;6.00;99.90
15937;DHT22;9163;48.818;8.976;2023-11-21T05:21:00;6.00;99.90
15937;DHT22;9163;48.818;8.976;2023-11-21T05:23:28;5.90;99.90
15937;DHT22;9163;48.818;8.976;2023-11-21T05:25:55;5.90;99.90
15937;DHT22;9163;48.818;8.976;2023-11-21T05:28:23;5.80;99.90
15937;DHT22;9163;48.818;8.976;2023-11-21T05:30:50;5.80;99.90
15937;DHT22;9163;48.818;8.976;2023-11-21T05:33:19;5.70;99.90
15937;DHT22;9163;48.818;8.976;2023-11-21T05:35:46;5.70;99.90
15937;DHT22;9163;48.818;8.976;2023-11-21T05:38:14;5.70;99.90
15937;DHT22;9163;48.818;8.976;2023-11-21T05:40:41;5.70;99.90
15937;DHT22;9163;48.818;8.976;2023-11-21T05:43:07;5.70;99.90
15937;DHT22;9163;48.818;8.976;2023-11-21T05:45:35;5.80;99.90
15937;DHT22;9163;48.818;8.976;2023-11-21T05:48:03;5.90;99.90
15937;DHT22;9163;48.818;8.976;2023-11-21T05:50:31;5.90;99.90
15937;DHT22;9163;48.818;8.976;2023-11-21T05:52:59;5.90;99.90
15937;DHT22;9163;48.818;8.976;2023-11-21T05:55:26;5.90;99.90
15937;DHT22;9163;48.818;8.976;2023-11-21T05:57:54;5.90;99.90
15937;DHT22;9163;48.818;8.976;2023-11-21T06:00:21;5.90;99.90
15937;DHT22;9163;48.818;8.976;2023-11-21T06:02:48;6.00;99.90
15937;DHT22;9163;48.818;8.976;2023-11-21T06:05:19;6.00;99.90
15937;DHT22;9163;48.818;8.976;2023-11-21T06:07:50;6.10;99.90
15937;DHT22;9163;48.818;8.976;2023-11-21T06:10:19;6.10;99.90
15937;DHT22;9163;48.818;8.976;2023-11-21T06:12:47;6.20;99.90
15937;DHT22;9163;48.818;8.976;2023-11-21T06:15:14;6.20;99.90
15937;DHT22;9163;48.818;8.976;2023-11-21T06:17:42;6.30;99.90
15937;DHT22;9163;48.818;8.976;2023-11-21T06:20:11;6.30;99.90
15937;DHT22;9163;48.818;8.976;2023-11-21T06:22:42;6.40;99.90
15937;DHT22;9163;48.818;8.976;2023-11-21T06:25:12;6.30;99.90
15937;DHT22;9163;48.818;8.976;2023-11-21T06:27:42;6.40;99.90
15937;DHT22;9163;48.818;8.976;2023-11-21T06:30:10;6.30;99.90
15937;DHT22;9163;48.818;8.976;2023-11-21T06:32:38;6.30;99.90
15937;DHT22;9163;48.818;8.976;2023-11-21T06:35:07;6.30;99.90
15937;DHT22;9163;48.818;8.976;2023-11-21T06:37:35;6.30;99.90
15937;DHT22;9163;48.818;8.976;2023-11-21T06:40:03;6.30;99.90
15937;DHT22;9163;48.818;8.976;2023-11-21T06:42:32;6.20;99.90
15937;DHT22;9163;48.818;8.976;2023-11-21T06:45:00;6.20;99.90
15937;DHT22;9163;48.818;8.976;2023-11-21T06:47:29;6.20;99.90
15937;DHT22;9163;48.818;8.976;2023-11-21T06:49:57;6.20;99.90
15937;DHT22;9163;48.818;8.976;2023-11-21T06:52:24;6.30;99.90
15937;DHT22;9163;48.818;8.976;2023-11-21T06:54:51;6.20;99.90
15937;DHT22;9163;48.818;8.976;2023-11-21T06:57:19;6.30;99.90
15937;DHT22;9163;48.818;8.976;2023-11-21T06:59:47;6.40;99.90
15937;DHT22;9163;48.818;8.976;2023-11-21T07:02:16;6.40;99.90
15937;DHT22;9163;48.818;8.976;2023-11-21T07:04:44;6.30;99.90
15937;DHT22;9163;48.818;8.976;2023-11-21T07:07:12;6.30;99.90
15937;DHT22;9163;48.818;8.976;2023-11-21T07:09:39;6.30;99.90
15937;DHT22;9163;48.818;8.976;2023-11-21T07:12:07;6.40;99.90
15937;DHT22;9163;48.818;8.976;2023-11-21T07:14:34;6.40;99.90
15937;DHT22;9163;48.818;8.976;2023-11-21T07:17:04;6.30;99.90
15937;DHT22;9163;48.818;8.976;2023-11-21T07:19:32;6.40;99.90
15937;DHT22;9163;48.818;8.976;2023-11-21T07:22:00;6.40;99.90
15937;DHT22;9163;48.818;8.976;2023-11-21T07:24:27;6.40;99.90
15937;DHT22;9163;48.818;8.976;2023-11-21T07:26:54;6.40;99.90
15937;DHT22;9163;48.818;8.976;2023-11-21T07:29:23;6.50;99.90
15937;DHT22;9163;48.818;8.976;2023-11-21T07:31:51;6.50;99.90
15937;DHT22;9163;48.818;8.976;2023-11-21T07:34:20;6.50;99.90
15937;DHT22;9163;48.818;8.976;2023-11-21T07:36:47;6.50;99.90
15937;DHT22;9163;48.818;8.976;2023-11-21T07:39:15;6.60;99.90
15937;DHT22;9163;48.818;8.976;2023-11-21T07:41:42;6.60;99.90
15937;DHT22;9163;48.818;8.976;2023-11-21T07:44:15;6.70;99.90
15937;DHT22;9163;48.818;8.976;2023-11-21T07:46:43;6.70;99.90
15937;DHT22;9163;48.818;8.976;2023-11-21T07:49:10;6.80;99.90
15937;DHT22;9163;48.818;8.976;2023-11-21T07:51:39;6.90;99.90
15937;DHT22;9163;48.818;8.976;2023-11-21T07:54:06;6.90;99.90
15937;DHT22;9163;48.818;8.976;2023-11-21T07:56:33;6.80;99.90
15937;DHT22;9163;48.818;8.976;2023-11-21T07:59:00;6.90;99.90
15937;DHT22;9163;48.818;8.976;2023-11-21T08:01:28;6.90;99.90
15937;DHT22;9163;48.818;8.976;2023-11-21T08:03:55;6.90;99.90
15937;DHT22;9163;48.818;8.976;2023-11-21T08:06:25;6.90;99.90
15937;DHT22;9163;48.818;8.976;2023-11-21T08:08:54;6.90;99.90
15937;DHT22;9163;48.818;8.976;2023-11-21T08:11:21;6.90;99.90
15937;DHT22;9163;48.818;8.976;2023-11-21T08:13:48;7.00;99.90
15937;DHT22;9163;48.818;8.976;2023-11-21T08:16:15;7.00;99.90
15937;DHT22;9163;48.818;8.976;2023-11-21T08:18:42;7.10;99.90
15937;DHT22;9163;48.818;8.976;2023-11-21T08:21:12;7.10;99.90
15937;DHT22;9163;48.818;8.976;2023-11-21T08:23:39;7.10;99.90
15937;DHT22;9163;48.818;8.976;2023-11-21T08:26:08;7.10;99.90
15937;DHT22;9163;48.818;8.976;2023-11-21T08:28:35;7.10;99.90
15937;DHT22;9163;48.818;8.976;2023-11-21T08:31:03;7.10;99.90
15937;DHT22;9163;48.818;8.976;2023-11-21T08:33:30;7.10;99.90
15937;DHT22;9163;48.818;8.976;2023-11-21T08:35:57;7.10;99.90
15937;DHT22;9163;48.818;8.976;2023-11-21T08:38:27;7.20;99.90
15937;DHT22;9163;48.818;8.976;2023-11-21T08:40:54;7.20;99.90
15937;DHT22;9163;48.818;8.976;2023-11-21T08:43:23;7.20;99.90
15937;DHT22;9163;48.818;8.976;2023-11-21T08:45:51;7.20;99.90
15937;DHT22;9163;48.818;8.976;2023-11-21T08:48:18;7.20;99.90
15937;DHT22;9163;48.818;8.976;2023-11-21T08:50:45;7.20;99.90
15937;DHT22;9163;48.818;8.976;2023-11-21T08:53:12;7.30;99.90
15937;DHT22;9163;48.818;8.976;2023-11-21T08:55:40;7.30;99.90
15937;DHT22;9163;48.818;8.976;2023-11-21T08:58:07;7.30;99.90
15937;DHT22;9163;48.818;8.976;2023-11-21T09:00:35;7.30;99.90
15937;DHT22;9163;48.818;8.976;2023-11-21T09:03:06;7.30;99.90
15937;DHT22;9163;48.818;8.976;2023-11-21T09:05:37;7.30;99.90
15937;DHT22;9163;48.818;8.976;2023-11-21T09:08:06;7.20;99.90
15937;DHT22;9163;48.818;8.976;2023-11-21T09:10:33;7.20;99.90
15937;DHT22;9163;48.818;8.976;2023-11-21T09:13:02;7.20;99.90
15937;DHT22;9163;48.818;8.976;2023-11-21T09:15:30;7.20;99.90
15937;DHT22;9163;48.818;8.976;2023-11-21T09:17:58;7.30;99.90
15937;DHT22;9163;48.818;8.976;2023-11-21T09:20:26;7.20;99.90
15937;DHT22;9163;48.818;8.976;2023-11-21T09:22:54;7.20;99.90
15937;DHT22;9163;48.818;8.976;2023-11-21T09:25:22;7.20;99.90
15937;DHT22;9163;48.818;8.976;2023-11-21T09:27:49;7.20;99.90
15937;DHT22;9163;48.818;8.976;2023-11-21T09:30:16;7.20;99.90
15937;DHT22;9163;48.818;8.976;2023-11-21T09:32:44;7.20;99.90
15937;DHT22;9163;48.818;8.976;2023-11-21T09:35:13;7.30;99.90
15937;DHT22;9163;48.818;8.976;2023-11-21T09:37:40;7.30;99.90
15937;DHT22;9163;48.818;8.976;2023-11-21T09:40:10;7.40;99.90
15937;DHT22;9163;48.818;8.976;2023-11-21T09:42:40;7.30;99.90
15937;DHT22;9163;48.818;8.976;2023-11-21T09:45:17;7.40;99.90
15937;DHT22;9163;48.818;8.976;2023-11-21T09:47:46;7.40;99.90
15937;DHT22;9163;48.818;8.976;2023-11-21T09:50:17;7.50;99.90
15937;DHT22;9163;48.818;8.976;2023-11-21T09:52:57;7.50;99.90
15937;DHT22;9163;48.818;8.976;2023-11-21T09:55:27;7.50;99.90
15937;DHT22;9163;48.818;8.976;2023-11-21T09:57:56;7.50;99.90
15937;DHT22;9163;48.818;8.976;2023-11-21T10:00:24;7.60;99.90
15937;DHT22;9163;48.818;8.976;2023-11-21T10:02:53;7.60;99.90
15937;DHT22;9163;48.818;8.976;2023-11-21T10:05:22;7.70;99.90
15937;DHT22;9163;48.818;8.976;2023-11-21T10:07:50;7.70;99.90
15937;DHT22;9163;48.818;8.976;2023-11-21T10:10:19;7.70;99.90
15937;DHT22;9163;48.818;8.976;2023-11-21T10:12:50;7.70;99.90
15937;DHT22;9163;48.818;8.976;2023-11-21T10:15:22;7.70;99.90
15937;DHT22;9163;48.818;8.976;2023-11-21T10:17:52;7.70;99.90
15937;DHT22;9163;48.818;8.976;2023-11-21T10:20:21;7.70;99.90
15937;DHT22;9163;48.818;8.976;2023-11-21T10:22:50;7.80;99.90
15937;DHT22;9163;48.818;8.976;2023-11-21T10:25:17;7.80;99.90
15937;DHT22;9163;48.818;8.976;2023-11-21T10:27:48;7.90;99.90
15937;DHT22;9163;48.818;8.976;2023-11-21T10:30:17;7.90;99.90
15937;DHT22;9163;48.818;8.976;2023-11-21T10:32:44;7.90;99.90
15937;DHT22;9163;48.818;8.976;2023-11-21T10:35:12;8.00;99.90
15937;DHT22;9163;48.818;8.976;2023-11-21T10:37:41;8.00;99.90
15937;DHT22;9163;48.818;8.976;2023-11-21T10:40:10;8.20;99.90
15937;DHT22;9163;48.818;8.976;2023-11-21T10:42:38;8.30;99.90
15937;DHT22;9163;48.818;8.976;2023-11-21T10:45:07;8.50;99.90
15937;DHT22;9163;48.818;8.976;2023-11-21T10:47:38;8.50;99.90
15937;DHT22;9163;48.818;8.976;2023-11-21T10:50:06;8.50;99.90
15937;DHT22;9163;48.818;8.976;2023-11-21T10:52:36;8.50;99.90
15937;DHT22;9163;48.818;8.976;2023-11-21T10:55:18;8.60;99.90
15937;DHT22;9163;48.818;8.976;2023-11-21T10:57:48;8.60;99.90
15937;DHT22;9163;48.818;8.976;2023-11-21T11:00:17;8.70;99.90
15937;DHT22;9163;48.818;8.976;2023-11-21T11:02:49;8.60;99.90
15937;DHT22;9163;48.818;8.976;2023-11-21T11:05:19;8.70;99.90
15937;DHT22;9163;48.818;8.976;2023-11-21T11:07:48;8.80;99.90
15937;DHT22;9163;48.818;8.976;2023-11-21T11:10:20;8.80;99.90
15937;DHT22;9163;48.818;8.976;2023-11-21T11:12:49;8.90;99.90
15937;DHT22;9163;48.818;8.976;2023-11-21T11:15:19;9.10;99.90
15937;DHT22;9163;48.818;8.976;2023-11-21T11:17:47;9.10;99.90
15937;DHT22;9163;48.818;8.976;2023-11-21T11:20:16;9.20;99.90
15937;DHT22;9163;48.818;8.976;2023-11-21T11:22:50;9.00;99.90
15937;DHT22;9163;48.818;8.976;2023-11-21T11:25:38;9.10;99.90
15937;DHT22;9163;48.818;8.976;2023-11-21T11:28:14;9.10;99.90
15937;DHT22;9163;48.818;8.976;2023-11-21T11:30:51;9.10;99.90
15937;DHT22;9163;48.818;8.976;2023-11-21T11:33:27;9.20;99.90
15937;DHT22;9163;48.818;8.976;2023-11-21T11:36:02;9.00;99.90
15937;DHT22;9163;48.818;8.976;2023-11-21T11:38:33;9.00;99.90
15937;DHT22;9163;48.818;8.976;2023-11-21T11:41:04;8.90;99.90
15937;DHT22;9163;48.818;8.976;2023-11-21T11:43:32;8.90;99.90
15937;DHT22;9163;48.818;8.976;2023-11-21T11:46:08;9.00;99.90
15937;DHT22;9163;48.818;8.976;2023-11-21T11:48:38;9.20;99.90
15937;DHT22;9163;48.818;8.976;2023-11-21T11:51:09;9.20;99.90
15937;DHT22;9163;48.818;8.976;2023-11-21T11:53:41;9.40;99.90
15937;DHT22;9163;48.818;8.976;2023-11-21T11:56:27;9.50;99.90
15937;DHT22;9163;48.818;8.976;2023-11-21T11:58:57;9.50;99.90
15937;DHT22;9163;48.818;8.976;2023-11-21T12:01:25;9.60;99.90
15937;DHT22;9163;48.818;8.976;2023-11-21T12:04:24;9.70;99.90
15937;DHT22;9163;48.818;8.976;2023-11-21T12:06:59;9.80;99.90
15937;DHT22;9163;48.818;8.976;2023-11-21T12:09:30;9.80;99.90
15937;DHT22;9163;48.818;8.976;2023-11-21T12:11:59;9.90;99.90
15937;DHT22;9163;48.818;8.976;2023-11-21T12:14:27;9.80;99.90
15937;DHT22;9163;48.818;8.976;2023-11-21T12:16:55;9.80;99.90
15937;DHT22;9163;48.818;8.976;2023-11-21T12:19:22;9.90;99.90
15937;DHT22;9163;48.818;8.976;2023-11-21T12:21:49;9.90;99.90
15937;DHT22;9163;48.818;8.976;2023-11-21T12:24:18;10.00;99.90
15937;DHT22;9163;48.818;8.976;2023-11-21T12:26:45;10.00;99.90
15937;DHT22;9163;48.818;8.976;2023-11-21T12:29:14;10.10;99.90
15937;DHT22;9163;48.818;8.976;2023-11-21T12:31:42;10.20;99.90
15937;DHT22;9163;48.818;8.976;2023-11-21T12:34:10;10.10;99.90
15937;DHT22;9163;48.818;8.976;2023-11-21T12:36:38;10.00;99.90
15937;DHT22;9163;48.818;8.976;2023-11-21T12:39:06;10.20;99.90
15937;DHT22;9163;48.818;8.976;2023-11-21T12:41:35;10.50;99.90
15937;DHT22;9163;48.818;8.976;2023-11-21T12:44:02;10.80;99.90
15937;DHT22;9163;48.818;8.976;2023-11-21T12:46:31;11.20;99.90
15937;DHT22;9163;48.818;8.976;2023-11-21T12:49:00;11.70;99.90
15937;DHT22;9163;48.818;8.976;2023-11-21T12:51:28;11.90;99.90
15937;DHT22;9163;48.818;8.976;2023-11-21T12:53:56;12.10;99.90
15937;DHT22;9163;48.818;8.976;2023-11-21T12:56:24;12.10;99.90
15937;DHT22;9163;48.818;8.976;2023-11-21T12:58:54;11.80;99.90
15937;DHT22;9163;48.818;8.976;2023-11-21T13:01:25;11.40;99.90
15937;DHT22;9163;48.818;8.976;2023-11-21T13:03:57;11.40;99.90
15937;DHT22;9163;48.818;8.976;2023-11-21T13:06:25;11.50;99.90
15937;DHT22;9163;48.818;8.976;2023-11-21T13:08:54;11.40;99.90
15937;DHT22;9163;48.818;8.976;2023-11-21T13:11:23;11.10;99.90
15937;DHT22;9163;48.818;8.976;2023-11-21T13:13:52;10.80;99.90
15937;DHT22;9163;48.818;8.976;2023-11-21T13:16:20;10.60;99.90
15937;DHT22;9163;48.818;8.976;2023-11-21T13:18:47;10.10;99.90
15937;DHT22;9163;48.818;8.976;2023-11-21T13:21:16;10.00;99.90
15937;DHT22;9163;48.818;8.976;2023-11-21T13:23:44;9.70;99.90
15937;DHT22;9163;48.818;8.976;2023-11-21T13:26:12;9.60;99.90
15937;DHT22;9163;48.818;8.976;2023-11-21T13:28:40;9.50;99.90
15937;DHT22;9163;48.818;8.976;2023-11-21T13:31:12;9.40;99.90
15937;DHT22;9163;48.818;8.976;2023-11-21T13:33:52;9.30;99.90
15937;DHT22;9163;48.818;8.976;2023-11-21T13:36:24;9.20;99.90
15937;DHT22;9163;48.818;8.976;2023-11-21T13:38:56;9.20;99.90
15937;DHT22;9163;48.818;8.976;2023-11-21T13:41:24;9.10;99.90
15937;DHT22;9163;48.818;8.976;2023-11-21T13:43:56;9.10;99.90
15937;DHT22;9163;48.818;8.976;2023-11-21T13:46:29;9.10;99.90
15937;DHT22;9163;48.818;8.976;2023-11-21T13:49:03;9.10;99.90
15937;DHT22;9163;48.818;8.976;2023-11-21T13:51:37;9.10;99.90
15937;DHT22;9163;48.818;8.976;2023-11-21T13:54:07;9.10;99.90
15937;DHT22;9163;48.818;8.976;2023-11-21T13:56:35;9.20;99.90
15937;DHT22;9163;48.818;8.976;2023-11-21T13:59:03;9.30;99.90
15937;DHT22;9163;48.818;8.976;2023-11-21T14:01:39;9.20;99.90
15937;DHT22;9163;48.818;8.976;2023-11-21T14:04:20;9.20;99.90
15937;DHT22;9163;48.818;8.976;2023-11-21T14:07:03;9.30;99.90
15937;DHT22;9163;48.818;8.976;2023-11-21T14:09:46;9.30;99.90
15937;DHT22;9163;48.818;8.976;2023-11-21T14:12:15;9.40;99.90
15937;DHT22;9163;48.818;8.976;2023-11-21T14:14:42;9.30;99.90
15937;DHT22;9163;48.818;8.976;2023-11-21T14:17:11;9.30;99.90
15937;DHT22;9163;48.818;8.976;2023-11-21T14:19:38;9.30;99.90
15937;DHT22;9163;48.818;8.976;2023-11-21T14:22:10;9.20;99.90
15937;DHT22;9163;48.818;8.976;2023-11-21T14:24:37;9.10;99.90
15937;DHT22;9163;48.818;8.976;2023-11-21T14:27:10;9.10;99.90
15937;DHT22;9163;48.818;8.976;2023-11-21T14:29:37;9.00;99.90
15937;DHT22;9163;48.818;8.976;2023-11-21T14:32:09;9.00;99.90
15937;DHT22;9163;48.818;8.976;2023-11-21T14:34:37;8.90;99.90
15937;DHT22;9163;48.818;8.976;2023-11-21T14:37:04;8.90;99.90
15937;DHT22;9163;48.818;8.976;2023-11-21T14:39:33;8.70;99.90
15937;DHT22;9163;48.818;8.976;2023-11-21T14:42:06;8.60;99.90
15937;DHT22;9163;48.818;8.976;2023-11-21T14:44:34;8.60;99.90
15937;DHT22;9163;48.818;8.976;2023-11-21T14:47:04;8.40;99.90
15937;DHT22;9163;48.818;8.976;2023-11-21T14:49:41;8.40;99.90
15937;DHT22;9163;48.818;8.976;2023-11-21T14:52:18;8.30;99.90
15937;DHT22;9163;48.818;8.976;2023-11-21T14:55:02;8.30;99.90
15937;DHT22;9163;48.818;8.976;2023-11-21T14:57:53;8.20;99.90
15937;DHT22;9163;48.818;8.976;2023-11-21T15:00:20;8.20;99.90
15937;DHT22;9163;48.818;8.976;2023-11-21T15:03:11;8.20;99.90
15937;DHT22;9163;48.818;8.976;2023-11-21T15:05:51;8.10;99.90
15937;DHT22;9163;48.818;8.976;2023-11-21T15:08:17;8.10;99.90
15937;DHT22;9163;48.818;8.976;2023-11-21T15:10:49;8.10;99.90
15937;DHT22;9163;48.818;8.976;2023-11-21T15:13:20;8.10;99.90
15937;DHT22;9163;48.818;8.976;2023-11-21T15:15:47;8.10;99.90
15937;DHT22;9163;48.818;8.976;2023-11-21T15:18:14;8.00;99.90
15937;DHT22;9163;48.818;8.976;2023-11-21T15:20:41;8.00;99.90
15937;DHT22;9163;48.818;8.976;2023-11-21T15:23:09;7.90;99.90
15937;DHT22;9163;48.818;8.976;2023-11-21T15:25:38;7.90;99.90
15937;DHT22;9163;48.818;8.976;2023-11-21T15:28:07;7.90;99.90
15937;DHT22;9163;48.818;8.976;2023-11-21T15:30:34;7.90;99.90
15937;DHT22;9163;48.818;8.976;2023-11-21T15:33:01;7.90;99.90
15937;DHT22;9163;48.818;8.976;2023-11-21T15:35:29;7.90;99.90
15937;DHT22;9163;48.818;8.976;2023-11-21T15:37:59;7.80;99.90
15937;DHT22;9163;48.818;8.976;2023-11-21T15:40:26;7.80;99.90
15937;DHT22;9163;48.818;8.976;2023-11-21T15:42:56;7.80;99.90
15937;DHT22;9163;48.818;8.976;2023-11-21T15:45:25;7.80;99.90
15937;DHT22;9163;48.818;8.976;2023-11-21T15:47:52;7.80;99.90
15937;DHT22;9163;48.818;8.976;2023-11-21T15:50:20;7.80;99.90
15937;DHT22;9163;48.818;8.976;2023-11-21T15:52:47;7.70;99.90
15937;DHT22;9163;48.818;8.976;2023-11-21T15:55:14;7.70;99.90
15937;DHT22;9163;48.818;8.976;2023-11-21T15:57:43;7.70;99.90
15937;DHT22;9163;48.818;8.976;2023-11-21T16:00:11;7.70;99.90
15937;DHT22;9163;48.818;8.976;2023-11-21T16:02:43;7.70;99.90
15937;DHT22;9163;48.818;8.976;2023-11-21T16:05:11;7.70;99.90
15937;DHT22;9163;48.818;8.976;2023-11-21T16:07:41;7.60;99.90
15937;DHT22;9163;48.818;8.976;2023-11-21T16:10:12;7.60;99.90